sensor_id;sensor_type;location;lat;lon;timestamp;pressure;altitude;pressure_sealevel;temperature;humidity
75617;BME280;64200;55.426;37.758;2023-07-31T00:01:09;98533.84;;;17.47;58.25
75617;BME280;64200;55.426;37.758;2023-07-31T00:06:09;98538.81;;;17.41;58.54
75617;BME280;64200;55.426;37.758;2023-07-31T00:11:10;98547.94;;;17.34;58.94
75617;BME280;64200;55.426;37.758;2023-07-31T00:16:10;98560.38;;;17.25;59.14
75617;BME280;64200;55.426;37.758;2023-07-31T00:21:11;98549.63;;;17.10;59.53
75617;BME280;64200;55.426;37.758;2023-07-31T00:26:11;98546.03;;;17.10;59.73
75617;BME280;64200;55.426;37.758;2023-07-31T00:31:12;98538.25;;;17.16;60.00
75617;BME280;64200;55.426;37.758;2023-07-31T00:36:12;98543.91;;;17.16;59.93
75617;BME280;64200;55.426;37.758;2023-07-31T00:41:13;98555.25;;;17.10;59.95
75617;BME280;64200;55.426;37.758;2023-07-31T00:46:13;98555.69;;;17.01;60.18
75617;BME280;64200;55.426;37.758;2023-07-31T00:51:14;98543.84;;;16.70;61.39
75617;BME280;64200;55.426;37.758;2023-07-31T00:56:16;98533.56;;;16.73;61.18
75617;BME280;64200;55.426;37.758;2023-07-31T01:01:16;98534.25;;;16.79;60.90
75617;BME280;64200;55.426;37.758;2023-07-31T01:11:51;98539.97;;;16.73;61.25
75617;BME280;64200;55.426;37.758;2023-07-31T01:16:52;98527.28;;;16.47;62.08
75617;BME280;64200;55.426;37.758;2023-07-31T01:27:17;98530.72;;;16.73;61.34
75617;BME280;64200;55.426;37.758;2023-07-31T01:32:21;98532.47;;;16.76;61.37
75617;BME280;64200;55.426;37.758;2023-07-31T01:37:28;98530.88;;;16.80;61.33
75617;BME280;64200;55.426;37.758;2023-07-31T01:42:29;98533.16;;;16.82;61.24
75617;BME280;64200;55.426;37.758;2023-07-31T01:47:30;98530.09;;;16.80;61.19
75617;BME280;64200;55.426;37.758;2023-07-31T01:52:30;98526.00;;;16.81;61.66
75617;BME280;64200;55.426;37.758;2023-07-31T01:57:31;98524.88;;;16.71;61.23
75617;BME280;64200;55.426;37.758;2023-07-31T02:02:31;98531.00;;;16.56;62.05
75617;BME280;64200;55.426;37.758;2023-07-31T02:07:32;98528.03;;;16.67;61.76
75617;BME280;64200;55.426;37.758;2023-07-31T02:12:32;98535.44;;;16.83;61.74
75617;BME280;64200;55.426;37.758;2023-07-31T02:17:33;98536.34;;;16.92;61.38
75617;BME280;64200;55.426;37.758;2023-07-31T02:22:34;98535.44;;;16.83;61.50
75617;BME280;64200;55.426;37.758;2023-07-31T02:27:34;98544.09;;;16.85;61.62
75617;BME280;64200;55.426;37.758;2023-07-31T02:32:35;98550.38;;;16.78;61.67
75617;BME280;64200;55.426;37.758;2023-07-31T02:37:36;98548.03;;;16.63;62.19
75617;BME280;64200;55.426;37.758;2023-07-31T02:42:36;98551.59;;;16.64;62.25
75617;BME280;64200;55.426;37.758;2023-07-31T02:47:37;98551.09;;;16.65;62.35
75617;BME280;64200;55.426;37.758;2023-07-31T02:52:37;98549.00;;;16.85;62.19
75617;BME280;64200;55.426;37.758;2023-07-31T02:57:38;98537.88;;;16.93;62.24
75617;BME280;64200;55.426;37.758;2023-07-31T03:02:38;98536.63;;;17.07;62.03
75617;BME280;64200;55.426;37.758;2023-07-31T03:07:39;98537.06;;;17.25;61.62
75617;BME280;64200;55.426;37.758;2023-07-31T03:12:40;98535.88;;;17.33;61.62
75617;BME280;64200;55.426;37.758;2023-07-31T03:17:40;98538.50;;;17.45;61.44
75617;BME280;64200;55.426;37.758;2023-07-31T03:22:41;98537.09;;;17.51;61.76
75617;BME280;64200;55.426;37.758;2023-07-31T03:27:41;98531.78;;;17.61;61.28
75617;BME280;64200;55.426;37.758;2023-07-31T03:32:42;98541.22;;;17.64;61.23
75617;BME280;64200;55.426;37.758;2023-07-31T03:37:42;98538.94;;;17.76;61.22
75617;BME280;64200;55.426;37.758;2023-07-31T03:42:43;98540.75;;;17.86;61.14
75617;BME280;64200;55.426;37.758;2023-07-31T03:47:43;98535.03;;;17.92;60.63
75617;BME280;64200;55.426;37.758;2023-07-31T03:52:44;98547.38;;;18.02;60.76
75617;BME280;64200;55.426;37.758;2023-07-31T03:57:45;98546.69;;;18.23;60.34
75617;BME280;64200;55.426;37.758;2023-07-31T04:02:45;98548.50;;;18.34;60.06
75617;BME280;64200;55.426;37.758;2023-07-31T04:07:46;98545.50;;;18.53;60.00
75617;BME280;64200;55.426;37.758;2023-07-31T04:12:46;98554.53;;;18.72;60.06
75617;BME280;64200;55.426;37.758;2023-07-31T04:17:47;98548.31;;;18.87;59.45
75617;BME280;64200;55.426;37.758;2023-07-31T04:22:48;98557.28;;;18.99;59.16
75617;BME280;64200;55.426;37.758;2023-07-31T04:27:48;98563.00;;;19.07;58.63
75617;BME280;64200;55.426;37.758;2023-07-31T04:32:49;98549.44;;;19.05;58.30
75617;BME280;64200;55.426;37.758;2023-07-31T04:37:49;98558.63;;;19.27;58.30
75617;BME280;64200;55.426;37.758;2023-07-31T04:42:50;98562.88;;;19.41;58.13
75617;BME280;64200;55.426;37.758;2023-07-31T04:47:50;98571.16;;;19.68;57.94
75617;BME280;64200;55.426;37.758;2023-07-31T04:52:52;98570.94;;;19.87;57.73
75617;BME280;64200;55.426;37.758;2023-07-31T04:57:53;98577.59;;;19.97;57.32
75617;BME280;64200;55.426;37.758;2023-07-31T05:02:53;98578.59;;;20.08;56.72
75617;BME280;64200;55.426;37.758;2023-07-31T05:07:54;98581.41;;;20.08;56.14
75617;BME280;64200;55.426;37.758;2023-07-31T05:12:54;98566.75;;;20.25;56.25
75617;BME280;64200;55.426;37.758;2023-07-31T05:17:55;98573.25;;;20.41;54.99
75617;BME280;64200;55.426;37.758;2023-07-31T05:22:55;98573.66;;;20.60;54.94
75617;BME280;64200;55.426;37.758;2023-07-31T05:27:56;98584.34;;;20.98;54.59
75617;BME280;64200;55.426;37.758;2023-07-31T05:32:56;98584.16;;;21.19;53.43
75617;BME280;64200;55.426;37.758;2023-07-31T05:37:57;98590.41;;;21.41;52.60
75617;BME280;64200;55.426;37.758;2023-07-31T05:42:57;98590.41;;;21.56;51.42
75617;BME280;64200;55.426;37.758;2023-07-31T05:47:58;98592.09;;;21.75;52.04
75617;BME280;64200;55.426;37.758;2023-07-31T05:52:58;98596.41;;;21.91;50.70
75617;BME280;64200;55.426;37.758;2023-07-31T05:57:59;98596.31;;;22.22;50.56
75617;BME280;64200;55.426;37.758;2023-07-31T06:02:59;98597.91;;;22.56;49.68
75617;BME280;64200;55.426;37.758;2023-07-31T06:08:00;98594.75;;;22.77;48.26
75617;BME280;64200;55.426;37.758;2023-07-31T06:13:01;98588.31;;;23.10;48.95
75617;BME280;64200;55.426;37.758;2023-07-31T06:18:01;98589.56;;;23.42;47.12
75617;BME280;64200;55.426;37.758;2023-07-31T06:23:03;98596.88;;;23.70;45.73
75617;BME280;64200;55.426;37.758;2023-07-31T06:28:04;98594.63;;;23.68;43.57
75617;BME280;64200;55.426;37.758;2023-07-31T06:33:04;98592.31;;;23.92;43.49
75617;BME280;64200;55.426;37.758;2023-07-31T06:38:04;98593.50;;;24.24;43.19
75617;BME280;64200;55.426;37.758;2023-07-31T06:43:06;98603.09;;;24.46;40.18
75617;BME280;64200;55.426;37.758;2023-07-31T06:48:09;98596.88;;;24.58;41.60
75617;BME280;64200;55.426;37.758;2023-07-31T06:53:10;98601.22;;;25.13;40.80
75617;BME280;64200;55.426;37.758;2023-07-31T06:58:10;98612.81;;;25.52;41.09
75617;BME280;64200;55.426;37.758;2023-07-31T07:03:11;98603.81;;;25.56;39.81
75617;BME280;64200;55.426;37.758;2023-07-31T07:08:15;98613.50;;;26.09;39.15
75617;BME280;64200;55.426;37.758;2023-07-31T07:13:15;98607.19;;;26.40;36.68
75617;BME280;64200;55.426;37.758;2023-07-31T07:18:16;98603.50;;;26.89;35.47
75617;BME280;64200;55.426;37.758;2023-07-31T07:23:17;98621.13;;;27.26;34.33
75617;BME280;64200;55.426;37.758;2023-07-31T07:28:17;98619.22;;;27.50;32.39
75617;BME280;64200;55.426;37.758;2023-07-31T07:33:18;98620.28;;;27.77;31.47
75617;BME280;64200;55.426;37.758;2023-07-31T07:38:19;98622.19;;;27.84;31.61
75617;BME280;64200;55.426;37.758;2023-07-31T07:43:19;98617.91;;;28.16;30.98
75617;BME280;64200;55.426;37.758;2023-07-31T07:48:20;98625.41;;;28.88;30.68
75617;BME280;64200;55.426;37.758;2023-07-31T07:53:23;98626.34;;;29.50;29.06
75617;BME280;64200;55.426;37.758;2023-07-31T07:58:24;98615.19;;;30.29;28.66
75617;BME280;64200;55.426;37.758;2023-07-31T08:03:24;98638.13;;;31.32;26.12
75617;BME280;64200;55.426;37.758;2023-07-31T08:08:27;98632.88;;;32.56;25.56
75617;BME280;64200;55.426;37.758;2023-07-31T08:13:28;98642.03;;;33.12;24.16
75617;BME280;64200;55.426;37.758;2023-07-31T08:18:29;98646.31;;;33.75;23.81
75617;BME280;64200;55.426;37.758;2023-07-31T08:23:29;98647.69;;;34.96;21.63
75617;BME280;64200;55.426;37.758;2023-07-31T08:28:30;98640.97;;;36.10;21.27
75617;BME280;64200;55.426;37.758;2023-07-31T08:33:30;98645.78;;;37.66;19.08
75617;BME280;64200;55.426;37.758;2023-07-31T08:38:31;98649.78;;;38.05;18.21
75617;BME280;64200;55.426;37.758;2023-07-31T08:43:32;98641.38;;;36.66;17.94
75617;BME280;64200;55.426;37.758;2023-07-31T08:48:35;98640.84;;;37.44;17.45
75617;BME280;64200;55.426;37.758;2023-07-31T08:53:37;98648.56;;;39.06;16.86
75617;BME280;64200;55.426;37.758;2023-07-31T08:58:38;98643.19;;;35.11;18.79
75617;BME280;64200;55.426;37.758;2023-07-31T09:03:40;98653.81;;;38.51;18.10
75617;BME280;64200;55.426;37.758;2023-07-31T09:08:42;98648.44;;;40.50;15.19
75617;BME280;64200;55.426;37.758;2023-07-31T09:13:43;98643.56;;;37.91;16.14
75617;BME280;64200;55.426;37.758;2023-07-31T09:18:54;98644.41;;;39.51;16.10
75617;BME280;64200;55.426;37.758;2023-07-31T09:23:57;98637.34;;;39.61;14.98
75617;BME280;64200;55.426;37.758;2023-07-31T09:28:58;98644.81;;;40.11;14.22
75617;BME280;64200;55.426;37.758;2023-07-31T09:33:59;98639.00;;;36.83;16.80
75617;BME280;64200;55.426;37.758;2023-07-31T09:39:03;98641.72;;;41.45;14.39
75617;BME280;64200;55.426;37.758;2023-07-31T09:44:04;98644.97;;;43.97;11.84
75617;BME280;64200;55.426;37.758;2023-07-31T09:54:13;98634.69;;;44.11;10.71
75617;BME280;64200;55.426;37.758;2023-07-31T09:59:23;98640.59;;;44.29;11.23
75617;BME280;64200;55.426;37.758;2023-07-31T10:04:27;98638.38;;;44.42;10.37
75617;BME280;64200;55.426;37.758;2023-07-31T10:09:30;98642.78;;;44.27;10.79
75617;BME280;64200;55.426;37.758;2023-07-31T10:14:31;98620.03;;;38.68;13.91
75617;BME280;64200;55.426;37.758;2023-07-31T10:19:34;98635.13;;;38.60;15.09
75617;BME280;64200;55.426;37.758;2023-07-31T10:24:36;98627.00;;;36.95;15.79
75617;BME280;64200;55.426;37.758;2023-07-31T10:29:38;98623.22;;;33.93;17.99
75617;BME280;64200;55.426;37.758;2023-07-31T10:34:40;98624.72;;;37.94;17.28
75617;BME280;64200;55.426;37.758;2023-07-31T10:39:40;98632.13;;;42.04;12.11
75617;BME280;64200;55.426;37.758;2023-07-31T10:44:46;98640.41;;;43.47;12.12
75617;BME280;64200;55.426;37.758;2023-07-31T10:49:47;98636.84;;;42.42;12.06
75617;BME280;64200;55.426;37.758;2023-07-31T10:55:15;98619.16;;;36.99;15.53
75617;BME280;64200;55.426;37.758;2023-07-31T11:00:26;98621.97;;;33.80;18.96
75617;BME280;64200;55.426;37.758;2023-07-31T11:05:44;98610.84;;;32.33;20.69
75617;BME280;64200;55.426;37.758;2023-07-31T11:10:46;98607.72;;;31.71;22.19
75617;BME280;64200;55.426;37.758;2023-07-31T11:15:47;98614.53;;;32.05;23.05
75617;BME280;64200;55.426;37.758;2023-07-31T11:20:47;98607.50;;;35.06;20.99
75617;BME280;64200;55.426;37.758;2023-07-31T11:25:48;98612.94;;;34.60;20.25
75617;BME280;64200;55.426;37.758;2023-07-31T11:30:49;98615.75;;;33.38;21.33
75617;BME280;64200;55.426;37.758;2023-07-31T11:35:50;98616.00;;;32.20;22.99
75617;BME280;64200;55.426;37.758;2023-07-31T11:40:52;98622.00;;;36.51;20.10
75617;BME280;64200;55.426;37.758;2023-07-31T11:45:56;98615.31;;;40.84;15.21
75617;BME280;64200;55.426;37.758;2023-07-31T11:50:59;98617.31;;;42.75;13.10
75617;BME280;64200;55.426;37.758;2023-07-31T11:56:00;98619.63;;;40.32;14.85
75617;BME280;64200;55.426;37.758;2023-07-31T12:01:02;98611.50;;;39.85;15.18
75617;BME280;64200;55.426;37.758;2023-07-31T12:06:03;98620.88;;;41.75;13.52
75617;BME280;64200;55.426;37.758;2023-07-31T12:11:05;98612.75;;;37.29;16.25
75617;BME280;64200;55.426;37.758;2023-07-31T12:16:06;98620.69;;;35.69;17.85
75617;BME280;64200;55.426;37.758;2023-07-31T12:21:08;98615.78;;;34.40;18.47
75617;BME280;64200;55.426;37.758;2023-07-31T12:26:11;98607.72;;;33.04;20.12
75617;BME280;64200;55.426;37.758;2023-07-31T12:31:19;98594.47;;;32.37;20.91
75617;BME280;64200;55.426;37.758;2023-07-31T12:36:22;98604.63;;;31.81;22.93
75617;BME280;64200;55.426;37.758;2023-07-31T12:41:23;98621.19;;;32.38;22.82
75617;BME280;64200;55.426;37.758;2023-07-31T12:46:23;98610.06;;;31.47;23.65
75617;BME280;64200;55.426;37.758;2023-07-31T12:51:24;98613.28;;;31.81;23.90
75617;BME280;64200;55.426;37.758;2023-07-31T12:56:24;98599.41;;;31.63;24.00
75617;BME280;64200;55.426;37.758;2023-07-31T13:01:25;98598.44;;;31.31;24.49
75617;BME280;64200;55.426;37.758;2023-07-31T13:06:25;98600.88;;;31.09;25.84
75617;BME280;64200;55.426;37.758;2023-07-31T13:11:26;98597.13;;;30.67;25.09
75617;BME280;64200;55.426;37.758;2023-07-31T13:16:26;98598.03;;;30.31;26.72
75617;BME280;64200;55.426;37.758;2023-07-31T13:21:28;98604.22;;;30.52;26.12
75617;BME280;64200;55.426;37.758;2023-07-31T13:26:29;98614.06;;;30.23;26.99
75617;BME280;64200;55.426;37.758;2023-07-31T13:31:29;98607.69;;;29.75;27.38
75617;BME280;64200;55.426;37.758;2023-07-31T13:36:30;98596.94;;;29.64;27.92
75617;BME280;64200;55.426;37.758;2023-07-31T13:41:30;98597.84;;;29.66;28.44
75617;BME280;64200;55.426;37.758;2023-07-31T13:46:31;98594.38;;;29.44;29.38
75617;BME280;64200;55.426;37.758;2023-07-31T13:51:32;98607.94;;;28.96;29.87
75617;BME280;64200;55.426;37.758;2023-07-31T13:56:33;98596.56;;;28.41;31.09
75617;BME280;64200;55.426;37.758;2023-07-31T14:01:34;98609.88;;;28.36;32.35
75617;BME280;64200;55.426;37.758;2023-07-31T14:06:34;98600.88;;;28.30;32.72
75617;BME280;64200;55.426;37.758;2023-07-31T14:11:35;98613.38;;;28.35;32.14
75617;BME280;64200;55.426;37.758;2023-07-31T14:16:36;98597.31;;;28.42;32.02
75617;BME280;64200;55.426;37.758;2023-07-31T14:21:36;98595.28;;;28.32;32.02
75617;BME280;64200;55.426;37.758;2023-07-31T14:26:37;98593.81;;;27.88;32.17
75617;BME280;64200;55.426;37.758;2023-07-31T14:31:38;98601.31;;;27.72;31.97
75617;BME280;64200;55.426;37.758;2023-07-31T14:36:38;98593.25;;;27.80;31.76
75617;BME280;64200;55.426;37.758;2023-07-31T14:41:39;98594.78;;;27.81;32.22
75617;BME280;64200;55.426;37.758;2023-07-31T14:46:39;98597.00;;;27.61;32.20
75617;BME280;64200;55.426;37.758;2023-07-31T14:51:40;98597.69;;;27.49;33.10
75617;BME280;64200;55.426;37.758;2023-07-31T14:56:40;98599.25;;;27.41;33.36
75617;BME280;64200;55.426;37.758;2023-07-31T15:01:41;98593.72;;;27.55;33.26
75617;BME280;64200;55.426;37.758;2023-07-31T15:06:41;98600.72;;;27.42;33.61
75617;BME280;64200;55.426;37.758;2023-07-31T15:11:42;98612.41;;;27.24;34.45
75617;BME280;64200;55.426;37.758;2023-07-31T15:16:43;98602.22;;;27.11;34.76
75617;BME280;64200;55.426;37.758;2023-07-31T15:21:43;98611.63;;;27.24;34.27
75617;BME280;64200;55.426;37.758;2023-07-31T15:26:44;98610.66;;;27.09;34.72
75617;BME280;64200;55.426;37.758;2023-07-31T15:31:44;98612.75;;;27.09;34.62
75617;BME280;64200;55.426;37.758;2023-07-31T15:36:45;98602.72;;;26.88;34.63
75617;BME280;64200;55.426;37.758;2023-07-31T15:41:46;98609.41;;;26.61;35.42
75617;BME280;64200;55.426;37.758;2023-07-31T15:46:47;98598.31;;;26.46;36.03
75617;BME280;64200;55.426;37.758;2023-07-31T15:51:48;98589.41;;;26.42;36.39
75617;BME280;64200;55.426;37.758;2023-07-31T15:56:49;98597.69;;;26.47;36.32
75617;BME280;64200;55.426;37.758;2023-07-31T16:01:49;98597.22;;;26.51;36.25
75617;BME280;64200;55.426;37.758;2023-07-31T16:06:50;98590.91;;;26.53;36.34
75617;BME280;64200;55.426;37.758;2023-07-31T16:11:50;98596.34;;;26.49;36.77
75617;BME280;64200;55.426;37.758;2023-07-31T16:16:51;98594.88;;;26.28;36.84
75617;BME280;64200;55.426;37.758;2023-07-31T16:21:51;98590.81;;;26.11;36.97
75617;BME280;64200;55.426;37.758;2023-07-31T16:26:52;98602.50;;;25.96;37.83
75617;BME280;64200;55.426;37.758;2023-07-31T16:31:52;98587.47;;;25.76;38.59
75617;BME280;64200;55.426;37.758;2023-07-31T16:36:53;98596.44;;;25.63;38.68
75617;BME280;64200;55.426;37.758;2023-07-31T16:41:57;98602.88;;;25.53;39.27
75617;BME280;64200;55.426;37.758;2023-07-31T16:46:57;98608.72;;;25.46;39.92
75617;BME280;64200;55.426;37.758;2023-07-31T16:51:58;98602.56;;;25.39;40.08
75617;BME280;64200;55.426;37.758;2023-07-31T16:56:59;98605.63;;;25.24;40.82
75617;BME280;64200;55.426;37.758;2023-07-31T17:01:59;98620.94;;;25.19;41.17
75617;BME280;64200;55.426;37.758;2023-07-31T17:07:00;98626.28;;;25.05;41.50
75617;BME280;64200;55.426;37.758;2023-07-31T17:12:01;98626.09;;;24.93;42.09
75617;BME280;64200;55.426;37.758;2023-07-31T17:17:02;98630.91;;;24.73;42.59
75617;BME280;64200;55.426;37.758;2023-07-31T17:22:03;98635.94;;;24.65;42.78
75617;BME280;64200;55.426;37.758;2023-07-31T17:27:03;98635.28;;;24.57;43.27
75617;BME280;64200;55.426;37.758;2023-07-31T17:32:04;98652.50;;;24.49;43.70
75617;BME280;64200;55.426;37.758;2023-07-31T17:37:05;98649.56;;;24.39;43.83
75617;BME280;64200;55.426;37.758;2023-07-31T17:42:06;98670.19;;;24.30;43.98
75617;BME280;64200;55.426;37.758;2023-07-31T17:47:06;98675.03;;;24.19;44.47
75617;BME280;64200;55.426;37.758;2023-07-31T17:52:07;98682.75;;;24.09;44.88
75617;BME280;64200;55.426;37.758;2023-07-31T17:57:07;98693.63;;;24.03;45.27
75617;BME280;64200;55.426;37.758;2023-07-31T18:02:08;98691.25;;;23.92;45.30
75617;BME280;64200;55.426;37.758;2023-07-31T18:07:08;98697.38;;;23.88;45.73
75617;BME280;64200;55.426;37.758;2023-07-31T18:12:09;98695.91;;;23.79;46.01
75617;BME280;64200;55.426;37.758;2023-07-31T18:17:09;98711.72;;;23.73;46.37
75617;BME280;64200;55.426;37.758;2023-07-31T18:22:11;98702.50;;;23.64;46.72
75617;BME280;64200;55.426;37.758;2023-07-31T18:27:12;98706.31;;;23.59;46.90
75617;BME280;64200;55.426;37.758;2023-07-31T18:32:14;98718.94;;;23.48;47.19
75617;BME280;64200;55.426;37.758;2023-07-31T18:37:16;98718.63;;;23.37;47.38
75617;BME280;64200;55.426;37.758;2023-07-31T18:42:17;98719.84;;;23.26;47.32
75617;BME280;64200;55.426;37.758;2023-07-31T18:47:17;98711.00;;;23.14;47.70
75617;BME280;64200;55.426;37.758;2023-07-31T18:52:18;98711.16;;;23.16;47.66
75617;BME280;64200;55.426;37.758;2023-07-31T18:57:19;98708.34;;;23.08;47.72
75617;BME280;64200;55.426;37.758;2023-07-31T19:02:19;98711.38;;;23.10;47.73
75617;BME280;64200;55.426;37.758;2023-07-31T19:07:20;98703.97;;;23.07;47.68
75617;BME280;64200;55.426;37.758;2023-07-31T19:12:20;98707.22;;;23.04;47.75
75617;BME280;64200;55.426;37.758;2023-07-31T19:17:21;98708.00;;;22.96;47.87
75617;BME280;64200;55.426;37.758;2023-07-31T19:22:21;98706.66;;;22.97;47.77
75617;BME280;64200;55.426;37.758;2023-07-31T19:27:22;98699.91;;;22.85;47.64
75617;BME280;64200;55.426;37.758;2023-07-31T19:32:23;98714.50;;;22.89;47.79
75617;BME280;64200;55.426;37.758;2023-07-31T19:37:23;98717.97;;;22.72;47.82
75617;BME280;64200;55.426;37.758;2023-07-31T19:42:24;98712.31;;;22.65;47.73
75617;BME280;64200;55.426;37.758;2023-07-31T19:47:24;98714.59;;;22.66;47.76
75617;BME280;64200;55.426;37.758;2023-07-31T19:52:25;98712.72;;;22.61;47.97
75617;BME280;64200;55.426;37.758;2023-07-31T19:57:25;98727.72;;;22.38;48.84
75617;BME280;64200;55.426;37.758;2023-07-31T20:02:26;98719.03;;;22.28;48.71
75617;BME280;64200;55.426;37.758;2023-07-31T20:07:27;98722.28;;;22.33;48.80
75617;BME280;64200;55.426;37.758;2023-07-31T20:12:28;98731.16;;;22.21;49.46
75617;BME280;64200;55.426;37.758;2023-07-31T20:17:29;98719.03;;;22.13;49.58
75617;BME280;64200;55.426;37.758;2023-07-31T20:22:30;98719.59;;;22.11;50.14
75617;BME280;64200;55.426;37.758;2023-07-31T20:27:31;98726.63;;;22.10;50.21
75617;BME280;64200;55.426;37.758;2023-07-31T20:32:31;98733.06;;;22.03;50.84
75617;BME280;64200;55.426;37.758;2023-07-31T20:37:32;98721.91;;;21.90;51.13
75617;BME280;64200;55.426;37.758;2023-07-31T20:42:32;98727.97;;;21.86;51.19
75617;BME280;64200;55.426;37.758;2023-07-31T20:47:33;98732.72;;;21.84;51.63
75617;BME280;64200;55.426;37.758;2023-07-31T20:52:33;98730.81;;;21.79;51.85
75617;BME280;64200;55.426;37.758;2023-07-31T20:57:34;98725.88;;;21.79;51.84
75617;BME280;64200;55.426;37.758;2023-07-31T21:02:34;98737.44;;;21.81;51.94
75617;BME280;64200;55.426;37.758;2023-07-31T21:07:35;98736.66;;;21.73;52.46
75617;BME280;64200;55.426;37.758;2023-07-31T21:12:35;98731.56;;;21.64;52.90
75617;BME280;64200;55.426;37.758;2023-07-31T21:17:38;98730.59;;;21.53;53.25
75617;BME280;64200;55.426;37.758;2023-07-31T21:22:39;98727.53;;;21.44;53.86
75617;BME280;64200;55.426;37.758;2023-07-31T21:27:39;98729.78;;;21.37;54.17
75617;BME280;64200;55.426;37.758;2023-07-31T21:32:40;98722.97;;;21.25;54.53
75617;BME280;64200;55.426;37.758;2023-07-31T21:37:40;98724.66;;;21.28;54.24
75617;BME280;64200;55.426;37.758;2023-07-31T21:42:41;98718.06;;;21.33;53.76
75617;BME280;64200;55.426;37.758;2023-07-31T21:47:43;98726.41;;;21.47;53.40
75617;BME280;64200;55.426;37.758;2023-07-31T21:52:44;98725.25;;;21.34;53.82
75617;BME280;64200;55.426;37.758;2023-07-31T21:57:45;98713.50;;;21.22;54.26
75617;BME280;64200;55.426;37.758;2023-07-31T22:02:45;98716.16;;;21.20;54.21
75617;BME280;64200;55.426;37.758;2023-07-31T22:07:46;98727.28;;;21.18;54.66
75617;BME280;64200;55.426;37.758;2023-07-31T22:12:46;98718.38;;;21.06;54.91
75617;BME280;64200;55.426;37.758;2023-07-31T22:17:47;98703.34;;;20.83;54.86
75617;BME280;64200;55.426;37.758;2023-07-31T22:22:47;98712.78;;;20.78;55.14
75617;BME280;64200;55.426;37.758;2023-07-31T22:27:48;98701.84;;;20.82;54.93
75617;BME280;64200;55.426;37.758;2023-07-31T22:32:50;98714.53;;;20.88;54.67
75617;BME280;64200;55.426;37.758;2023-07-31T22:37:51;98710.53;;;20.76;55.24
75617;BME280;64200;55.426;37.758;2023-07-31T22:42:52;98715.22;;;20.74;55.33
75617;BME280;64200;55.426;37.758;2023-07-31T22:47:52;98721.06;;;20.68;55.82
75617;BME280;64200;55.426;37.758;2023-07-31T22:52:53;98719.00;;;20.68;55.62
75617;BME280;64200;55.426;37.758;2023-07-31T22:57:54;98726.88;;;20.62;55.71
75617;BME280;64200;55.426;37.758;2023-07-31T23:02:55;98719.66;;;20.53;56.16
75617;BME280;64200;55.426;37.758;2023-07-31T23:07:55;98721.16;;;20.54;56.10
75617;BME280;64200;55.426;37.758;2023-07-31T23:12:56;98723.66;;;20.58;55.74
75617;BME280;64200;55.426;37.758;2023-07-31T23:17:56;98729.50;;;20.60;55.69
75617;BME280;64200;55.426;37.758;2023-07-31T23:22:57;98728.75;;;20.60;56.00
75617;BME280;64200;55.426;37.758;2023-07-31T23:27:57;98728.50;;;20.50;56.18
75617;BME280;64200;55.426;37.758;2023-07-31T23:32:58;98727.72;;;20.42;56.61
75617;BME280;64200;55.426;37.758;2023-07-31T23:37:58;98729.19;;;20.35;56.75
75617;BME280;64200;55.426;37.758;2023-07-31T23:42:58;98730.22;;;20.16;57.24
75617;BME280;64200;55.426;37.758;2023-07-31T23:47:59;98725.28;;;20.17;57.26
75617;BME280;64200;55.426;37.758;2023-07-31T23:53:00;98727.97;;;20.23;57.08
75617;BME280;64200;55.426;37.758;2023-07-31T23:58:01;98725.16;;;20.23;56.98
